Crown Hill, Washington
Current Conditions -  °F | °C
As of 5:53 PM on Thursday 20 Nov 2014 (Local Time) from KBFI Reporting Station
Light Rain Light Rain  
Wind Chill: 52°   Ceiling: 7000
Heat Index: 52°   Visibility: 10mi
Dew Point: 46°   Wind: 5mph
Humidity: 80%   Direction: 150°SSE
Pressure: 29.94"   Gusts: NA
Location:  47.688°N, 122.381°W
Report Text: KBFI 210153Z 15004KT 10SM -RA OVC070 11/08 A2994 RMK AO2 RAB50 SLP137 P0000 T01110078
Loading
Personal Weather Stations






























Interactive Weather Map New forecast layout! Learn more

10-Day Weather Forecast

Advertisements
Track Severe Weather on mobile